Time;durP1;ratioP1;P1;durP2;ratioP2;P2;SDS_P1;SDS_P2;PMS_P1;PMS_P2;Temp;Humidity;BMP_temperature;BMP_pressure;BME280_temperature;BME280_humidity;BME280_pressure;Samples;Min_cycle;Max_cycle;Signal;HPM_P1;HPM_P2
2021/12/13 00:00:58;;;;;;;21.27;13.68;;;5.70;99.90;;;;;;5071929;28;20272;-78
2021/12/13 00:03:32;;;;;;;25.38;14.63;;;5.80;99.90;;;;;;5071061;28;20185;-78
2021/12/13 00:06:02;;;;;;;18.40;13.45;;;5.80;99.90;;;;;;5072069;28;20242;-78
2021/12/13 00:08:31;;;;;;;19.10;13.00;;;5.80;99.90;;;;;;5075770;28;20251;-77
2021/12/13 00:11:07;;;;;;;23.40;15.35;;;5.80;99.90;;;;;;5075869;28;20185;-78
2021/12/13 00:13:39;;;;;;;22.23;12.70;;;5.80;99.90;;;;;;5075500;28;20272;-77
2021/12/13 00:16:07;;;;;;;27.85;14.55;;;5.80;99.90;;;;;;5075836;28;20276;-78
2021/12/13 00:18:38;;;;;;;22.67;13.50;;;5.80;99.90;;;;;;5075719;28;20640;-77
2021/12/13 00:21:08;;;;;;;20.83;14.02;;;5.80;99.90;;;;;;5075691;28;20273;-77
2021/12/13 00:23:42;;;;;;;24.10;15.32;;;5.80;99.90;;;;;;5065824;28;20277;-77
2021/12/13 00:26:09;;;;;;;27.80;15.23;;;5.80;99.90;;;;;;5075685;28;20180;-77
2021/12/13 00:28:41;;;;;;;27.75;16.63;;;5.90;99.90;;;;;;5075361;28;20307;-77
2021/12/13 00:31:32;;;;;;;23.33;14.90;;;5.90;99.90;;;;;;5075475;28;20178;-78
2021/12/13 00:34:09;;;;;;;25.27;12.63;;;5.90;99.90;;;;;;5069055;28;20181;-78
2021/12/13 00:36:41;;;;;;;28.03;14.83;;;5.90;99.90;;;;;;5075557;28;20543;-78
2021/12/13 00:39:13;;;;;;;24.52;14.48;;;5.90;99.90;;;;;;5075244;28;20902;-77
2021/12/13 00:41:44;;;;;;;21.48;14.13;;;6.00;99.90;;;;;;5069212;28;20185;-77
2021/12/13 00:44:16;;;;;;;23.40;15.30;;;6.00;99.90;;;;;;5074982;28;20277;-77
2021/12/13 00:46:44;;;;;;;26.38;15.02;;;6.00;99.90;;;;;;5075010;28;20854;-77
2021/12/13 00:49:17;;;;;;;22.42;14.73;;;6.10;99.90;;;;;;5074164;28;20272;-77
2021/12/13 00:51:46;;;;;;;21.48;13.73;;;6.00;99.90;;;;;;5074756;28;20648;-77
2021/12/13 00:54:18;;;;;;;24.33;15.10;;;6.10;99.90;;;;;;5074928;28;20239;-77
2021/12/13 00:56:55;;;;;;;22.70;15.93;;;6.10;99.90;;;;;;5068002;28;20225;-77
2021/12/13 00:59:25;;;;;;;21.60;14.30;;;6.10;99.90;;;;;;5075180;28;20614;-77
2021/12/13 01:01:55;;;;;;;20.00;12.43;;;6.10;99.90;;;;;;5074837;28;20723;-78
2021/12/13 01:04:24;;;;;;;23.08;13.95;;;6.10;99.90;;;;;;5075075;28;20182;-77
2021/12/13 01:07:35;;;;;;;23.10;14.10;;;6.00;99.90;;;;;;5074825;28;20240;-77
2021/12/13 01:10:48;;;;;;;25.17;14.75;;;6.10;99.90;;;;;;5069391;28;20493;-77
2021/12/13 01:13:19;;;;;;;20.00;13.50;;;6.10;99.90;;;;;;5071934;28;20193;-78
2021/12/13 01:15:51;;;;;;;21.48;12.65;;;6.10;99.90;;;;;;5074532;28;20219;-77
2021/12/13 01:18:27;;;;;;;22.27;14.30;;;6.10;99.90;;;;;;5073877;28;20189;-77
2021/12/13 01:21:03;;;;;;;26.37;16.23;;;6.10;99.90;;;;;;5074653;28;20461;-77
2021/12/13 01:23:42;;;;;;;23.40;14.68;;;6.10;99.90;;;;;;5074517;28;20493;-77
2021/12/13 01:26:27;;;;;;;23.42;13.75;;;6.10;99.90;;;;;;5074234;28;20193;-77
2021/12/13 01:28:57;;;;;;;20.87;13.67;;;6.10;99.90;;;;;;5069003;28;20298;-77
2021/12/13 01:31:28;;;;;;;23.40;14.25;;;6.10;99.90;;;;;;5074273;28;20479;-78
2021/12/13 01:33:56;;;;;;;24.52;13.65;;;6.10;99.90;;;;;;5074278;28;20243;-78
2021/12/13 01:36:28;;;;;;;33.20;17.30;;;6.20;99.90;;;;;;5074008;28;20177;-79
2021/12/13 01:38:57;;;;;;;25.30;15.40;;;6.20;99.90;;;;;;5074224;28;20478;-76
2021/12/13 01:41:30;;;;;;;30.60;16.13;;;6.20;99.90;;;;;;5074093;28;20535;-79
2021/12/13 01:44:05;;;;;;;25.60;15.60;;;6.20;99.90;;;;;;5074156;28;20534;-79
2021/12/13 01:46:36;;;;;;;20.20;13.40;;;6.20;99.90;;;;;;5073948;28;20482;-79
2021/12/13 01:49:04;;;;;;;25.93;15.80;;;6.20;99.90;;;;;;5073839;28;20927;-79
2021/12/13 01:51:34;;;;;;;24.48;13.18;;;6.20;99.90;;;;;;5073891;28;20882;-78
2021/12/13 01:54:04;;;;;;;24.83;14.88;;;6.20;99.90;;;;;;5073978;28;20213;-78
2021/12/13 01:56:44;;;;;;;24.00;12.87;;;6.20;99.90;;;;;;5073662;28;20220;-78
2021/12/13 01:59:40;;;;;;;26.10;14.55;;;6.20;99.90;;;;;;5073645;28;20504;-79
2021/12/13 02:02:14;;;;;;;26.45;14.25;;;6.30;99.90;;;;;;5072431;28;20280;-79
2021/12/13 02:04:41;;;;;;;25.20;15.60;;;6.20;99.90;;;;;;5073831;28;20185;-79
2021/12/13 02:07:10;;;;;;;23.83;14.97;;;6.20;99.90;;;;;;5073462;28;20265;-79
2021/12/13 02:09:40;;;;;;;26.73;15.10;;;6.30;99.90;;;;;;5064170;28;21033;-79
2021/12/13 02:12:13;;;;;;;28.30;16.23;;;6.30;99.90;;;;;;5073447;28;20475;-78
2021/12/13 02:14:47;;;;;;;21.93;13.63;;;6.30;99.90;;;;;;5073519;28;20485;-78
2021/12/13 02:17:16;;;;;;;26.65;16.23;;;6.20;99.90;;;;;;5073310;28;20444;-78
2021/12/13 02:19:48;;;;;;;26.65;15.20;;;6.30;99.90;;;;;;5073311;28;20352;-78
2021/12/13 02:22:41;;;;;;;28.95;15.50;;;6.30;99.90;;;;;;5073056;28;20720;-78
2021/12/13 02:25:20;;;;;;;20.47;13.13;;;6.30;99.90;;;;;;5070064;28;20269;-78
2021/12/13 02:27:49;;;;;;;26.90;14.20;;;6.30;99.90;;;;;;5058615;28;20512;-78
2021/12/13 02:30:25;;;;;;;22.33;13.30;;;6.40;99.90;;;;;;5072424;28;20258;-75
2021/12/13 02:32:51;;;;;;;24.55;14.93;;;6.30;99.90;;;;;;5073900;28;20474;-75
2021/12/13 02:35:20;;;;;;;22.83;13.93;;;6.30;99.90;;;;;;5073482;28;20623;-76
2021/12/13 02:37:49;;;;;;;29.63;15.47;;;6.40;99.90;;;;;;5073429;28;20257;-76
2021/12/13 02:40:19;;;;;;;31.58;15.68;;;6.30;99.90;;;;;;5073084;28;20873;-76
2021/12/13 02:42:46;;;;;;;25.10;13.02;;;6.40;99.90;;;;;;5073262;28;20181;-76
2021/12/13 02:45:18;;;;;;;27.65;13.82;;;6.40;99.90;;;;;;5073112;28;20268;-78
2021/12/13 02:47:50;;;;;;;26.33;15.80;;;6.40;99.90;;;;;;5073178;28;20638;-78
2021/12/13 02:50:21;;;;;;;25.65;14.60;;;6.40;99.90;;;;;;5073178;28;20280;-77
2021/12/13 02:52:50;;;;;;;28.45;15.35;;;6.40;99.90;;;;;;5073153;28;20285;-78
2021/12/13 02:55:21;;;;;;;26.17;13.77;;;6.40;99.90;;;;;;5072955;28;20219;-78
2021/12/13 02:57:52;;;;;;;24.20;14.67;;;6.40;99.90;;;;;;5073481;28;20435;-79
2021/12/13 03:00:25;;;;;;;25.48;13.43;;;6.40;99.90;;;;;;5073171;28;20531;-78
2021/12/13 03:02:57;;;;;;;23.58;12.93;;;6.40;99.90;;;;;;5073105;28;20220;-76
2021/12/13 03:05:31;;;;;;;23.83;13.38;;;6.40;99.90;;;;;;5072989;28;20217;-77
2021/12/13 03:08:02;;;;;;;28.00;14.23;;;6.40;99.90;;;;;;5072582;28;20296;-76
2021/12/13 03:10:33;;;;;;;25.77;13.05;;;6.40;99.90;;;;;;5072975;28;20486;-76
2021/12/13 03:13:01;;;;;;;23.23;13.95;;;6.40;99.90;;;;;;5072710;28;20192;-76
2021/12/13 03:15:31;;;;;;;25.23;13.57;;;6.40;99.90;;;;;;5072713;28;20224;-76
2021/12/13 03:18:07;;;;;;;22.00;12.63;;;6.30;99.90;;;;;;5072530;28;20272;-76
2021/12/13 03:20:56;;;;;;;21.20;12.48;;;6.40;99.90;;;;;;5064274;28;20288;-77
2021/12/13 03:23:44;;;;;;;27.30;13.07;;;6.40;99.90;;;;;;5072694;28;20220;-76
2021/12/13 03:26:26;;;;;;;28.33;14.00;;;6.40;99.90;;;;;;5039152;28;20271;-76
2021/12/13 03:29:07;;;;;;;28.95;14.25;;;6.40;99.90;;;;;;5072398;28;21010;-76
2021/12/13 03:31:37;;;;;;;29.17;14.90;;;6.40;99.90;;;;;;5055886;28;20846;-76
2021/12/13 03:34:07;;;;;;;29.70;15.50;;;6.40;99.90;;;;;;5072493;28;20280;-76
2021/12/13 03:36:49;;;;;;;31.35;15.07;;;6.40;99.90;;;;;;5072684;28;20922;-76
2021/12/13 03:39:21;;;;;;;31.90;15.15;;;6.50;99.90;;;;;;5072160;28;20271;-77
2021/12/13 03:41:51;;;;;;;30.73;14.77;;;6.50;99.90;;;;;;5072266;28;20264;-76
2021/12/13 03:44:21;;;;;;;25.97;13.33;;;6.50;99.90;;;;;;5072324;28;20542;-75
2021/12/13 03:46:50;;;;;;;23.80;13.30;;;6.50;99.90;;;;;;5072408;28;20888;-75
2021/12/13 03:49:20;;;;;;;24.80;12.90;;;6.40;99.90;;;;;;5072103;28;20475;-75
2021/12/13 03:51:48;;;;;;;31.00;14.80;;;6.40;99.90;;;;;;5072289;28;20625;-75
2021/12/13 03:54:18;;;;;;;27.73;14.70;;;6.40;99.90;;;;;;5072411;28;20538;-76
2021/12/13 03:56:48;;;;;;;23.13;12.27;;;6.40;99.90;;;;;;5072376;28;20804;-76
2021/12/13 03:59:18;;;;;;;34.50;15.95;;;6.40;99.90;;;;;;5072122;28;20543;-75
2021/12/13 04:01:50;;;;;;;34.00;15.90;;;6.40;99.90;;;;;;5071991;28;20235;-75
2021/12/13 04:04:22;;;;;;;30.60;14.23;;;6.40;99.90;;;;;;5070962;28;20490;-75
2021/12/13 04:06:52;;;;;;;27.30;13.82;;;6.40;99.90;;;;;;5072340;28;20451;-75
2021/12/13 04:09:23;;;;;;;38.00;16.05;;;6.40;99.90;;;;;;5072141;28;20213;-74
2021/12/13 04:11:55;;;;;;;27.70;14.00;;;6.50;99.90;;;;;;5072263;28;20268;-74
2021/12/13 04:14:29;;;;;;;32.60;13.90;;;6.50;99.90;;;;;;5072014;28;20182;-75
2021/12/13 04:17:06;;;;;;;34.78;14.95;;;6.50;99.90;;;;;;5071959;28;20496;-74
2021/12/13 04:19:44;;;;;;;29.08;14.77;;;6.50;99.90;;;;;;5072132;28;20188;-75
2021/12/13 04:22:12;;;;;;;40.47;16.05;;;6.50;99.90;;;;;;5072374;28;20177;-74
2021/12/13 04:24:44;;;;;;;34.22;15.30;;;6.50;99.90;;;;;;5071734;28;20617;-74
2021/12/13 04:27:20;;;;;;;44.42;15.95;;;6.50;99.90;;;;;;5071776;28;20276;-75
2021/12/13 04:29:48;;;;;;;35.75;15.50;;;6.50;99.90;;;;;;5071923;28;20303;-75
2021/12/13 04:32:18;;;;;;;38.00;14.43;;;6.50;99.90;;;;;;5072018;28;20268;-75
2021/12/13 04:34:45;;;;;;;34.57;15.20;;;6.50;99.90;;;;;;5071754;28;20217;-75
2021/12/13 04:37:15;;;;;;;35.10;15.63;;;6.50;99.90;;;;;;5071870;28;20475;-75
2021/12/13 04:39:45;;;;;;;33.40;14.45;;;6.50;99.90;;;;;;5071563;28;21096;-75
2021/12/13 04:42:14;;;;;;;37.57;16.40;;;6.50;99.90;;;;;;5071802;28;20196;-75
2021/12/13 04:44:50;;;;;;;39.72;15.80;;;6.50;99.90;;;;;;5071728;28;20538;-75
2021/12/13 04:47:18;;;;;;;40.75;15.02;;;6.50;99.90;;;;;;5071883;28;20189;-75
2021/12/13 04:49:52;;;;;;;39.13;16.23;;;6.50;99.90;;;;;;5071680;28;20300;-75
2021/12/13 04:52:21;;;;;;;45.63;16.80;;;6.50;99.90;;;;;;5071628;28;20534;-75
2021/12/13 04:54:54;;;;;;;46.00;17.05;;;6.50;99.90;;;;;;5074255;28;20486;-75
2021/12/13 04:57:22;;;;;;;31.73;13.50;;;6.50;99.90;;;;;;5075456;28;20272;-76
2021/12/13 04:59:50;;;;;;;35.10;13.77;;;6.50;99.90;;;;;;5075289;28;20489;-76
2021/12/13 05:02:17;;;;;;;33.95;13.80;;;6.50;99.90;;;;;;5075137;28;20185;-76
2021/12/13 05:04:44;;;;;;;35.53;14.90;;;6.50;99.90;;;;;;5075024;28;20276;-76
2021/12/13 05:07:11;;;;;;;38.67;16.23;;;6.50;99.90;;;;;;5075275;28;20482;-76
2021/12/13 05:09:37;;;;;;;31.17;14.40;;;6.60;99.90;;;;;;5075094;28;20503;-76
2021/12/13 05:12:13;;;;;;;30.13;14.17;;;6.50;99.90;;;;;;5075315;28;20296;-75
2021/12/13 05:14:43;;;;;;;37.63;15.65;;;6.50;99.90;;;;;;5074929;28;20474;-76
2021/12/13 05:17:14;;;;;;;30.85;13.65;;;6.60;99.90;;;;;;5075134;28;20276;-76
2021/12/13 05:19:45;;;;;;;36.15;14.50;;;6.60;99.90;;;;;;5075097;28;20224;-76
2021/12/13 05:22:14;;;;;;;36.97;15.20;;;6.50;99.90;;;;;;5075209;28;20181;-76
2021/12/13 05:24:45;;;;;;;32.70;13.13;;;6.70;99.90;;;;;;5074595;28;20451;-76
2021/12/13 05:27:16;;;;;;;41.20;14.20;;;6.60;99.90;;;;;;5074770;28;20479;-76
2021/12/13 05:29:45;;;;;;;31.97;13.60;;;6.60;99.90;;;;;;5074539;28;20566;-76
2021/12/13 05:32:15;;;;;;;33.60;13.27;;;6.60;99.90;;;;;;5074825;28;20482;-76
2021/12/13 05:34:46;;;;;;;36.10;14.73;;;6.60;99.90;;;;;;5074682;28;20235;-77
2021/12/13 05:37:13;;;;;;;43.57;16.37;;;6.60;99.90;;;;;;5074673;28;20625;-77
2021/12/13 05:39:55;;;;;;;36.58;15.82;;;6.60;99.90;;;;;;5074310;28;20483;-77
2021/12/13 05:42:36;;;;;;;41.37;15.10;;;6.60;99.90;;;;;;5074681;28;20280;-77
2021/12/13 05:45:03;;;;;;;35.88;12.68;;;6.60;99.90;;;;;;5074542;28;20435;-77
2021/12/13 05:47:30;;;;;;;43.83;16.17;;;6.70;99.90;;;;;;5074378;28;20243;-76
2021/12/13 05:49:56;;;;;;;38.30;16.80;;;6.70;99.90;;;;;;5074229;28;20909;-76
2021/12/13 05:52:31;;;;;;;34.77;12.43;;;6.70;99.90;;;;;;5074309;28;20541;-76
2021/12/13 05:55:02;;;;;;;40.97;14.52;;;6.70;99.90;;;;;;5074355;28;20537;-76
2021/12/13 05:57:35;;;;;;;34.13;13.67;;;6.70;99.90;;;;;;5074300;28;20542;-76
2021/12/13 06:00:08;;;;;;;36.63;13.90;;;6.70;99.90;;;;;;5074001;28;21021;-76
2021/12/13 06:03:02;;;;;;;45.33;15.00;;;6.70;99.90;;;;;;5073165;28;20455;-77
2021/12/13 06:05:31;;;;;;;50.13;15.25;;;6.70;99.90;;;;;;5073822;28;20501;-76
2021/12/13 06:08:01;;;;;;;30.93;12.80;;;6.70;99.90;;;;;;5074039;28;20273;-77
2021/12/13 06:10:35;;;;;;;47.70;15.80;;;6.70;99.90;;;;;;5073900;28;20481;-76
2021/12/13 06:13:08;;;;;;;39.53;14.63;;;6.70;99.90;;;;;;5072023;28;20509;-76
2021/12/13 06:15:39;;;;;;;53.42;17.17;;;6.70;99.90;;;;;;5073304;28;20443;-77
2021/12/13 06:18:16;;;;;;;40.75;14.60;;;6.70;99.90;;;;;;5073783;28;20224;-76
2021/12/13 06:20:47;;;;;;;38.83;14.55;;;6.70;99.90;;;;;;5073741;28;20189;-76
2021/12/13 06:23:17;;;;;;;42.80;13.07;;;6.70;99.90;;;;;;5073526;28;20221;-75
2021/12/13 06:25:46;;;;;;;48.00;14.13;;;6.70;99.90;;;;;;5073483;28;21010;-75
2021/12/13 06:28:21;;;;;;;43.83;15.32;;;6.70;99.90;;;;;;5073817;28;20470;-75
2021/12/13 06:30:54;;;;;;;43.47;16.75;;;6.70;99.90;;;;;;5073314;28;20244;-76
2021/12/13 06:33:21;;;;;;;34.92;13.48;;;6.70;99.90;;;;;;5073545;28;20213;-76
2021/12/13 06:35:49;;;;;;;35.58;13.93;;;6.70;99.90;;;;;;5073368;28;20272;-76
2021/12/13 06:38:42;;;;;;;32.23;12.30;;;6.70;99.90;;;;;;5073374;28;20804;-77
2021/12/13 06:41:13;;;;;;;40.03;14.32;;;6.70;99.90;;;;;;5073580;28;20443;-77
2021/12/13 06:43:44;;;;;;;43.97;15.63;;;6.70;99.90;;;;;;5065844;28;20210;-77
2021/12/13 06:46:28;;;;;;;33.80;11.98;;;6.70;99.90;;;;;;5073330;28;20205;-76
2021/12/13 06:48:59;;;;;;;39.70;13.30;;;6.70;99.90;;;;;;5073202;28;20284;-76
2021/12/13 06:51:39;;;;;;;38.80;13.80;;;6.70;99.90;;;;;;5073309;28;20526;-77
2021/12/13 06:54:09;;;;;;;53.05;16.60;;;6.80;99.90;;;;;;5061268;28;20471;-76
2021/12/13 06:56:38;;;;;;;39.53;14.70;;;6.80;99.90;;;;;;5073431;28;20189;-76
2021/12/13 06:59:09;;;;;;;49.38;15.73;;;6.80;99.90;;;;;;5073226;28;20229;-78
2021/12/13 07:01:40;;;;;;;47.70;14.05;;;6.70;99.90;;;;;;5067744;28;20260;-78
2021/12/13 07:04:10;;;;;;;48.53;14.90;;;6.70;99.90;;;;;;5073113;28;20250;-76
2021/12/13 07:06:37;;;;;;;39.80;14.90;;;6.70;99.90;;;;;;5072933;28;20538;-77
2021/12/13 07:09:10;;;;;;;40.97;14.73;;;6.70;99.90;;;;;;5072784;28;20520;-79
2021/12/13 07:11:48;;;;;;;43.03;12.75;;;6.80;99.90;;;;;;5056580;28;20723;-76
2021/12/13 07:14:19;;;;;;;32.77;12.87;;;6.80;99.90;;;;;;5072985;28;20242;-77
2021/12/13 07:16:49;;;;;;;43.00;13.47;;;6.80;99.90;;;;;;5071014;28;20534;-77
2021/12/13 07:19:22;;;;;;;45.87;13.80;;;6.80;99.90;;;;;;5072689;28;20506;-75
2021/12/13 07:21:54;;;;;;;35.70;13.40;;;6.80;99.90;;;;;;5072822;28;20453;-76
2021/12/13 07:24:29;;;;;;;34.38;10.82;;;6.80;99.90;;;;;;5072344;28;20443;-76
2021/12/13 07:27:04;;;;;;;38.00;13.10;;;6.80;99.90;;;;;;5070857;28;20225;-77
2021/12/13 07:29:39;;;;;;;36.80;11.90;;;6.90;99.90;;;;;;5072688;28;20537;-77
2021/12/13 07:32:10;;;;;;;46.53;13.67;;;6.90;99.90;;;;;;5072539;28;20584;-76
2021/12/13 07:35:02;;;;;;;40.40;13.27;;;6.90;99.90;;;;;;5072324;28;20538;-76
2021/12/13 07:37:37;;;;;;;48.77;15.87;;;6.90;99.90;;;;;;5072417;28;20482;-76
2021/12/13 07:40:21;;;;;;;38.13;13.70;;;6.90;99.90;;;;;;5072287;28;20509;-76
2021/12/13 07:42:57;;;;;;;39.87;14.10;;;7.00;99.90;;;;;;5072320;28;20951;-76
2021/12/13 07:45:29;;;;;;;40.33;13.73;;;6.90;99.90;;;;;;5072653;28;20512;-77
2021/12/13 07:47:57;;;;;;;42.43;15.20;;;7.00;99.90;;;;;;5072449;28;20539;-76
2021/12/13 07:50:25;;;;;;;49.80;13.90;;;7.00;99.90;;;;;;5072481;28;20522;-76
2021/12/13 07:53:00;;;;;;;43.10;14.10;;;7.00;99.90;;;;;;5072280;28;20850;-75
2021/12/13 07:55:30;;;;;;;41.13;13.82;;;7.00;99.90;;;;;;5072195;28;20482;-76
2021/12/13 07:58:01;;;;;;;40.93;14.47;;;7.00;99.90;;;;;;5072425;28;20276;-76
2021/12/13 08:00:34;;;;;;;45.63;14.53;;;7.00;99.90;;;;;;5072557;28;20454;-76
2021/12/13 08:03:03;;;;;;;43.90;14.45;;;7.10;99.90;;;;;;5071250;28;20539;-76
2021/12/13 08:05:37;;;;;;;46.53;14.20;;;7.10;99.90;;;;;;5071690;28;20220;-76
2021/12/13 08:08:04;;;;;;;44.78;14.60;;;7.10;99.90;;;;;;5072225;28;20465;-76
2021/12/13 08:10:34;;;;;;;42.60;13.03;;;7.10;99.90;;;;;;5072184;28;20264;-77
2021/12/13 08:13:05;;;;;;;40.37;14.07;;;7.10;99.90;;;;;;5072253;28;20566;-76
2021/12/13 08:15:38;;;;;;;39.22;14.65;;;7.10;99.90;;;;;;5072311;28;20931;-76
2021/12/13 08:18:09;;;;;;;35.60;12.33;;;7.20;99.90;;;;;;5071910;28;20185;-76
2021/12/13 08:20:42;;;;;;;42.10;15.53;;;7.20;99.90;;;;;;5072104;28;20485;-76
2021/12/13 08:23:15;;;;;;;40.50;14.47;;;7.20;99.90;;;;;;5072313;28;20838;-76
2021/12/13 08:25:43;;;;;;;43.03;15.90;;;7.20;99.90;;;;;;5060931;28;20455;-76
2021/12/13 08:28:12;;;;;;;38.90;13.57;;;7.20;99.90;;;;;;5072123;28;20455;-76
2021/12/13 08:30:47;;;;;;;46.50;18.30;;;7.20;99.90;;;;;;5075900;28;20561;-76
2021/12/13 08:33:16;;;;;;;37.43;15.40;;;7.30;99.90;;;;;;5075904;28;21160;-76
2021/12/13 08:35:49;;;;;;;42.17;15.33;;;7.30;99.90;;;;;;5075812;28;21022;-76
2021/12/13 08:38:30;;;;;;;46.63;14.73;;;7.40;99.90;;;;;;5075936;28;20530;-76
2021/12/13 08:40:58;;;;;;;31.33;12.50;;;7.40;99.90;;;;;;5075603;28;20549;-76
2021/12/13 08:43:38;;;;;;;35.40;14.90;;;7.50;99.90;;;;;;5075553;28;20537;-76
2021/12/13 08:46:07;;;;;;;34.10;14.20;;;7.50;99.90;;;;;;5075050;28;20495;-76
2021/12/13 08:48:45;;;;;;;34.77;14.53;;;7.50;99.90;;;;;;5075836;28;20528;-77
2021/12/13 08:51:19;;;;;;;32.30;13.37;;;7.50;99.90;;;;;;5075259;28;20486;-76
2021/12/13 08:53:57;;;;;;;35.17;15.20;;;7.60;99.90;;;;;;5074132;28;20451;-76
2021/12/13 08:56:25;;;;;;;47.53;14.23;;;7.60;99.90;;;;;;5075336;28;20521;-76
2021/12/13 08:58:54;;;;;;;43.20;14.63;;;7.60;99.90;;;;;;5075318;28;20479;-76
2021/12/13 09:01:22;;;;;;;31.77;12.60;;;7.70;99.90;;;;;;5075306;28;20454;-77
2021/12/13 09:03:52;;;;;;;33.67;13.80;;;7.70;99.90;;;;;;5075184;28;20534;-77
2021/12/13 09:06:27;;;;;;;39.57;13.93;;;7.80;99.90;;;;;;5075096;28;20849;-76
2021/12/13 09:08:57;;;;;;;42.23;15.00;;;7.80;99.90;;;;;;5075387;28;20478;-77
2021/12/13 09:11:31;;;;;;;34.30;13.50;;;7.80;99.90;;;;;;5074873;28;20490;-76
2021/12/13 09:14:03;;;;;;;31.93;13.10;;;7.90;99.90;;;;;;5075192;28;20470;-76
2021/12/13 09:16:44;;;;;;;27.57;11.10;;;8.00;99.90;;;;;;5074944;28;20470;-77
2021/12/13 09:19:19;;;;;;;48.13;16.30;;;8.00;99.90;;;;;;5075005;28;20456;-77
2021/12/13 09:21:54;;;;;;;29.07;12.83;;;8.00;99.90;;;;;;5075055;28;20478;-77
2021/12/13 09:24:40;;;;;;;33.67;13.70;;;8.00;99.90;;;;;;5074991;28;20484;-77
2021/12/13 09:27:14;;;;;;;30.60;13.37;;;8.00;99.90;;;;;;5074073;28;21006;-78
2021/12/13 09:29:50;;;;;;;38.83;15.70;;;7.90;99.90;;;;;;5059505;28;20479;-78
2021/12/13 09:32:18;;;;;;;29.70;13.23;;;8.00;99.90;;;;;;5074788;28;20511;-76
2021/12/13 09:34:45;;;;;;;38.03;14.37;;;8.00;99.90;;;;;;5074754;28;20485;-76
2021/12/13 09:37:13;;;;;;;34.90;13.77;;;8.00;99.90;;;;;;5074318;28;20456;-76
2021/12/13 09:39:41;;;;;;;31.43;13.50;;;8.00;99.90;;;;;;5073779;28;20566;-76
2021/12/13 09:42:12;;;;;;;29.67;12.57;;;8.00;99.90;;;;;;5074704;28;20470;-77
2021/12/13 09:44:45;;;;;;;33.50;14.10;;;8.00;99.90;;;;;;5066936;28;20475;-76
2021/12/13 09:47:14;;;;;;;31.67;13.23;;;8.00;99.90;;;;;;5074114;28;20501;-76
2021/12/13 09:49:48;;;;;;;40.17;16.20;;;8.10;99.90;;;;;;5074367;28;20502;-76
2021/12/13 09:52:19;;;;;;;29.23;13.70;;;8.20;99.90;;;;;;5074401;28;20534;-76
2021/12/13 09:54:51;;;;;;;31.53;13.27;;;8.20;99.90;;;;;;5074481;28;20535;-76
2021/12/13 09:57:20;;;;;;;33.40;14.33;;;8.20;99.90;;;;;;5074274;28;20578;-76
2021/12/13 09:59:50;;;;;;;31.43;15.00;;;8.30;99.90;;;;;;5074242;28;20471;-76
2021/12/13 10:02:20;;;;;;;28.90;13.20;;;8.30;99.90;;;;;;5074143;28;20535;-76
2021/12/13 10:04:50;;;;;;;24.93;12.77;;;8.30;99.90;;;;;;5073862;28;20455;-76
2021/12/13 10:07:21;;;;;;;26.10;12.10;;;8.30;99.90;;;;;;5074010;28;20447;-76
2021/12/13 10:09:52;;;;;;;26.93;12.47;;;8.30;99.90;;;;;;5072401;28;20439;-76
2021/12/13 10:12:24;;;;;;;27.47;11.70;;;8.20;99.90;;;;;;5072198;28;20443;-76
2021/12/13 10:14:53;;;;;;;25.07;12.40;;;8.30;99.90;;;;;;5073830;28;20554;-76
2021/12/13 10:17:24;;;;;;;31.10;12.97;;;8.20;99.90;;;;;;5073251;28;20883;-76
2021/12/13 10:19:54;;;;;;;26.67;13.07;;;8.30;99.90;;;;;;5073675;28;20617;-76
2021/12/13 10:22:25;;;;;;;28.27;12.40;;;8.30;99.90;;;;;;5073687;28;20535;-76
2021/12/13 10:24:55;;;;;;;22.37;11.10;;;8.40;99.90;;;;;;5073300;28;21025;-76
2021/12/13 10:27:23;;;;;;;18.73;10.17;;;8.40;99.90;;;;;;5073301;28;20550;-76
2021/12/13 10:29:54;;;;;;;27.07;12.53;;;8.40;99.90;;;;;;5072933;28;20535;-76
2021/12/13 10:32:24;;;;;;;28.80;13.50;;;8.50;99.90;;;;;;5073464;28;20448;-76
2021/12/13 10:34:56;;;;;;;23.53;13.40;;;8.50;99.90;;;;;;5073744;28;20818;-76
2021/12/13 10:37:29;;;;;;;29.90;14.53;;;8.60;99.90;;;;;;5069041;28;20462;-76
2021/12/13 10:39:59;;;;;;;26.23;14.13;;;8.70;99.90;;;;;;5067585;28;20562;-77
2021/12/13 10:42:30;;;;;;;24.00;12.20;;;8.70;99.90;;;;;;5070234;28;20455;-77
2021/12/13 10:44:58;;;;;;;22.97;11.73;;;8.70;99.90;;;;;;5072459;28;20447;-76
2021/12/13 10:47:34;;;;;;;19.40;12.33;;;8.70;99.90;;;;;;5070380;28;20436;-76
2021/12/13 10:50:09;;;;;;;20.00;10.93;;;8.70;99.90;;;;;;5072903;28;20490;-76
2021/12/13 10:52:40;;;;;;;19.50;9.70;;;8.70;99.90;;;;;;5072170;28;20541;-76
2021/12/13 10:55:10;;;;;;;15.27;9.37;;;8.70;99.90;;;;;;5073292;28;20534;-76
2021/12/13 10:57:43;;;;;;;19.83;12.03;;;8.80;99.90;;;;;;5073118;28;20526;-76
2021/12/13 11:00:13;;;;;;;14.03;9.27;;;8.80;99.90;;;;;;5073124;28;20456;-76
2021/12/13 11:02:40;;;;;;;16.17;9.40;;;8.80;99.90;;;;;;5069156;28;20447;-76
2021/12/13 11:05:12;;;;;;;15.30;8.60;;;8.80;99.90;;;;;;5072502;28;20479;-76
2021/12/13 11:07:39;;;;;;;15.33;9.60;;;8.80;99.90;;;;;;5069812;28;20454;-77
2021/12/13 11:10:08;;;;;;;18.73;9.70;;;8.80;99.90;;;;;;5072576;28;20451;-76
2021/12/13 11:12:39;;;;;;;16.03;9.27;;;8.80;99.90;;;;;;5072702;28;20535;-77
2021/12/13 11:15:09;;;;;;;20.20;11.43;;;8.80;99.90;;;;;;5072628;28;20493;-76
2021/12/13 11:17:37;;;;;;;19.30;10.70;;;8.80;99.90;;;;;;5069374;28;20482;-76
2021/12/13 11:20:11;;;;;;;15.47;8.80;;;8.90;99.90;;;;;;5072561;28;20443;-76
2021/12/13 11:22:38;;;;;;;18.23;9.73;;;8.90;99.90;;;;;;5072993;28;20475;-77
2021/12/13 11:25:10;;;;;;;14.67;9.63;;;8.90;99.90;;;;;;5067974;28;20447;-76
2021/12/13 11:27:37;;;;;;;21.17;11.93;;;8.90;99.90;;;;;;5065075;28;20497;-76
2021/12/13 11:30:09;;;;;;;21.77;11.43;;;8.90;99.90;;;;;;5071053;28;20527;-76
2021/12/13 11:33:09;;;;;;;24.33;12.63;;;8.90;99.90;;;;;;5072365;28;20530;-76
2021/12/13 11:36:13;;;;;;;17.70;9.77;;;8.90;99.90;;;;;;5066132;28;20448;-76
2021/12/13 11:39:19;;;;;;;17.40;10.53;;;8.90;99.90;;;;;;5072124;28;20449;-76
2021/12/13 11:41:59;;;;;;;21.70;11.03;;;8.80;99.90;;;;;;5070047;28;20478;-76
2021/12/13 11:44:51;;;;;;;23.77;12.00;;;8.90;99.90;;;;;;5069874;28;20475;-76
2021/12/13 11:47:48;;;;;;;18.07;10.77;;;8.90;99.90;;;;;;5071714;28;20482;-76
2021/12/13 11:50:56;;;;;;;18.27;10.73;;;8.90;99.90;;;;;;5072069;28;20530;-76
2021/12/13 11:53:42;;;;;;;18.70;11.60;;;8.90;99.90;;;;;;5072185;28;20530;-76
2021/12/13 11:56:38;;;;;;;16.40;10.20;;;8.90;99.90;;;;;;5072266;28;20455;-76
2021/12/13 11:59:20;;;;;;;14.97;10.10;;;8.90;99.90;;;;;;5070026;28;21006;-76
2021/12/13 12:02:00;;;;;;;13.73;9.50;;;9.00;99.90;;;;;;5070673;28;21011;-76
2021/12/13 12:05:14;;;;;;;17.93;10.70;;;9.00;99.90;;;;;;5076109;28;20455;-76
2021/12/13 12:08:05;;;;;;;19.10;10.93;;;9.00;99.90;;;;;;5068768;28;20443;-76
2021/12/13 12:11:02;;;;;;;14.03;8.93;;;9.00;99.90;;;;;;5071319;28;20458;-76
2021/12/13 12:13:49;;;;;;;12.67;8.80;;;9.00;99.90;;;;;;5072878;28;20530;-76
2021/12/13 12:16:18;;;;;;;16.63;9.60;;;9.00;99.90;;;;;;5076111;28;20849;-76
2021/12/13 12:18:45;;;;;;;12.40;8.93;;;8.90;99.90;;;;;;5075801;28;20531;-76
2021/12/13 12:21:46;;;;;;;16.63;10.47;;;8.90;99.90;;;;;;5075753;28;20545;-76
2021/12/13 12:24:17;;;;;;;17.37;10.30;;;8.90;99.90;;;;;;5075624;28;20447;-76
2021/12/13 12:26:49;;;;;;;13.90;9.13;;;8.90;99.90;;;;;;5076049;28;20873;-76
2021/12/13 12:29:20;;;;;;;17.10;11.37;;;9.00;99.90;;;;;;5075921;28;20518;-78
2021/12/13 12:31:58;;;;;;;17.57;10.63;;;9.00;99.90;;;;;;5072398;28;20475;-76
2021/12/13 12:34:25;;;;;;;15.40;9.80;;;9.20;99.90;;;;;;5075402;28;20542;-76
2021/12/13 12:37:48;;;;;;;15.20;9.20;;;9.30;99.90;;;;;;5075690;28;20454;-76
2021/12/13 12:40:24;;;;;;;12.40;8.40;;;9.40;99.90;;;;;;5064761;28;20513;-76
2021/12/13 12:42:54;;;;;;;13.20;9.43;;;9.40;99.90;;;;;;5075667;28;20523;-76
2021/12/13 12:45:26;;;;;;;10.27;8.20;;;9.40;99.90;;;;;;5075688;28;20780;-76
2021/12/13 12:48:07;;;;;;;12.80;8.23;;;9.40;99.90;;;;;;5075645;28;20501;-76
2021/12/13 12:50:37;;;;;;;16.37;9.53;;;9.30;99.90;;;;;;5075502;28;20962;-76
2021/12/13 12:53:08;;;;;;;12.37;9.20;;;9.30;99.90;;;;;;5075317;28;20538;-77
2021/12/13 12:55:38;;;;;;;11.73;7.60;;;9.30;99.90;;;;;;5059014;28;20820;-76
2021/12/13 12:58:11;;;;;;;12.03;8.73;;;9.30;99.90;;;;;;5075488;28;20446;-76
2021/12/13 13:00:41;;;;;;;14.90;8.60;;;9.30;99.90;;;;;;5075315;28;21053;-77
2021/12/13 13:03:14;;;;;;;9.00;6.60;;;9.20;99.90;;;;;;5075437;28;20447;-76
2021/12/13 13:05:42;;;;;;;13.30;8.40;;;9.20;99.90;;;;;;5059687;28;20538;-76
2021/12/13 13:08:08;;;;;;;13.27;9.60;;;9.30;99.90;;;;;;5075139;28;20914;-76
2021/12/13 13:10:49;;;;;;;13.30;8.60;;;9.30;99.90;;;;;;5075170;28;20819;-76